createdAt,value
2023-11-10T00:00:13.165Z,18.23
2023-11-10T00:02:42.470Z,13.65
2023-11-10T00:05:11.787Z,14.95
2023-11-10T00:07:41.353Z,12.07
2023-11-10T00:10:12.006Z,11.63
2023-11-10T00:12:40.620Z,15.63
2023-11-10T00:15:11.121Z,17.15
2023-11-10T00:18:05.305Z,10.50
2023-11-10T00:20:37.635Z,10.82
2023-11-10T00:23:08.774Z,13.55
2023-11-10T00:25:39.032Z,13.57
2023-11-10T00:28:07.780Z,10.73
2023-11-10T00:30:36.417Z,10.48
2023-11-10T00:33:05.184Z,9.70
2023-11-10T00:35:33.656Z,16.33
2023-11-10T00:38:02.059Z,10.80
2023-11-10T00:40:32.023Z,13.05
2023-11-10T00:43:02.099Z,10.43
2023-11-10T00:45:30.541Z,14.23
2023-11-10T00:47:59.035Z,12.77
2023-11-10T00:50:27.706Z,12.95
2023-11-10T00:52:56.366Z,15.15
2023-11-10T00:55:35.944Z,10.95
2023-11-10T00:58:07.081Z,12.73
2023-11-10T01:00:36.716Z,11.68
2023-11-10T01:03:06.020Z,11.50
2023-11-10T01:05:34.959Z,11.40
2023-11-10T01:08:19.167Z,13.35
2023-11-10T01:10:47.992Z,14.85
2023-11-10T01:13:19.738Z,11.88
2023-11-10T01:15:48.248Z,17.85
2023-11-10T01:18:16.768Z,10.45
2023-11-10T01:20:48.675Z,11.52
2023-11-10T01:23:17.501Z,12.20
2023-11-10T01:25:46.101Z,8.10
2023-11-10T01:28:13.645Z,13.15
2023-11-10T01:30:44.499Z,10.25
2023-11-10T01:33:13.405Z,14.00
2023-11-10T01:35:42.111Z,12.60
2023-11-10T01:38:10.546Z,11.43
2023-11-10T01:40:41.984Z,8.63
2023-11-10T01:43:11.042Z,10.10
2023-11-10T01:45:39.608Z,9.88
2023-11-10T01:48:12.067Z,17.52
2023-11-10T01:50:43.057Z,7.78
2023-11-10T01:53:12.703Z,10.10
2023-11-10T01:55:42.703Z,9.98
2023-11-10T01:58:13.178Z,14.02
2023-11-10T02:00:41.745Z,11.68
2023-11-10T02:03:12.057Z,11.15
2023-11-10T02:05:40.797Z,12.35
2023-11-10T02:08:12.114Z,11.60
2023-11-10T02:10:40.592Z,11.85
2023-11-10T02:13:09.247Z,17.70
2023-11-10T02:15:37.751Z,12.38
2023-11-10T02:18:06.306Z,15.13
2023-11-10T02:20:36.193Z,15.35
2023-11-10T02:23:04.685Z,11.73
2023-11-10T02:25:34.848Z,13.77
2023-11-10T02:28:03.271Z,22.42
2023-11-10T02:30:32.032Z,15.15
2023-11-10T02:33:00.456Z,36.60
2023-11-10T02:35:28.989Z,22.45
2023-11-10T02:37:57.373Z,27.20
2023-11-10T02:40:27.707Z,13.32
2023-11-10T02:42:57.604Z,14.43
2023-11-10T02:45:26.033Z,12.30
2023-11-10T02:47:54.739Z,12.57
2023-11-10T02:50:23.128Z,16.27
2023-11-10T02:52:51.450Z,15.98
2023-11-10T02:55:19.876Z,16.00
2023-11-10T02:57:48.319Z,15.38
2023-11-10T03:00:19.587Z,12.65
2023-11-10T03:02:47.981Z,21.23
2023-11-10T03:05:16.704Z,13.25
2023-11-10T03:07:44.993Z,14.73
2023-11-10T03:10:13.465Z,14.55
2023-11-10T03:12:41.919Z,12.02
2023-11-10T03:15:10.993Z,12.85
2023-11-10T03:17:41.093Z,13.45
2023-11-10T03:20:10.851Z,12.75
2023-11-10T03:22:39.516Z,13.02
2023-11-10T03:25:08.599Z,15.88
2023-11-10T03:27:38.028Z,13.27
2023-11-10T03:30:07.876Z,12.82
2023-11-10T03:32:36.351Z,11.98
2023-11-10T03:35:07.676Z,13.73
2023-11-10T03:37:36.384Z,11.52
2023-11-10T03:40:06.367Z,15.07
2023-11-10T03:42:34.762Z,15.73
2023-11-10T03:45:04.961Z,14.05
2023-11-10T03:47:34.204Z,17.88
2023-11-10T03:50:03.118Z,14.02
2023-11-10T03:52:32.930Z,18.52
2023-11-10T03:55:01.761Z,17.92
2023-11-10T03:57:30.135Z,16.15
2023-11-10T03:59:58.614Z,14.30
2023-11-10T04:02:31.129Z,16.83
2023-11-10T04:05:00.011Z,17.02
2023-11-10T04:07:28.770Z,12.75
2023-11-10T04:09:59.203Z,16.08
2023-11-10T04:12:28.416Z,13.40
2023-11-10T04:14:57.246Z,13.45
2023-11-10T04:17:26.497Z,16.52
2023-11-10T04:19:55.284Z,13.90
2023-11-10T04:22:23.660Z,12.63
2023-11-10T04:24:52.141Z,11.05
2023-11-10T04:27:21.996Z,11.10
2023-11-10T04:29:50.367Z,15.50
2023-11-10T04:32:19.019Z,13.65
2023-11-10T04:34:49.779Z,12.27
2023-11-10T04:37:20.723Z,13.40
2023-11-10T04:39:49.252Z,15.30
2023-11-10T04:42:17.683Z,18.63
2023-11-10T04:44:47.643Z,20.05
2023-11-10T04:47:16.033Z,13.88
2023-11-10T04:49:44.406Z,14.57
2023-11-10T04:52:13.476Z,15.07
2023-11-10T04:54:43.650Z,14.07
2023-11-10T04:57:12.560Z,14.93
2023-11-10T04:59:42.160Z,14.50
2023-11-10T05:02:12.097Z,13.27
2023-11-10T05:04:41.150Z,17.98
2023-11-10T05:07:10.230Z,14.70
2023-11-10T05:09:39.179Z,17.77
2023-11-10T05:12:10.687Z,17.70
2023-11-10T05:14:40.896Z,11.45
2023-11-10T05:17:09.767Z,14.07
2023-11-10T05:19:40.374Z,21.05
2023-11-10T05:22:12.248Z,15.85
2023-11-10T05:24:43.687Z,17.90
2023-11-10T05:27:12.371Z,16.55
2023-11-10T05:29:40.751Z,23.17
2023-11-10T05:32:09.328Z,17.90
2023-11-10T05:34:39.155Z,13.52
2023-11-10T05:37:11.392Z,12.30
2023-11-10T05:39:39.946Z,13.55
2023-11-10T05:42:08.489Z,21.60
2023-11-10T05:44:36.921Z,13.00
2023-11-10T05:47:05.740Z,11.15
2023-11-10T05:49:34.351Z,11.93
2023-11-10T05:52:04.425Z,12.65
2023-11-10T05:54:32.894Z,9.88
2023-11-10T05:57:01.407Z,9.68
2023-11-10T05:59:29.788Z,17.27
2023-11-10T06:01:58.545Z,9.50
2023-11-10T06:04:34.558Z,9.23
2023-11-10T06:07:06.208Z,10.18
2023-11-10T06:09:35.310Z,9.55
2023-11-10T06:12:03.929Z,9.45
2023-11-10T06:14:32.715Z,6.97
2023-11-10T06:17:01.053Z,7.80
2023-11-10T06:19:29.374Z,8.32
2023-11-10T06:21:57.878Z,6.47
2023-11-10T06:24:27.688Z,7.40
2023-11-10T06:26:56.082Z,5.63
2023-11-10T06:29:24.423Z,7.82
2023-11-10T06:31:54.660Z,9.73
2023-11-10T06:34:25.626Z,8.32
2023-11-10T06:36:54.012Z,9.85
2023-11-10T06:39:22.365Z,7.55
2023-11-10T06:41:52.246Z,10.25
2023-11-10T06:44:20.977Z,6.40
2023-11-10T06:46:49.393Z,8.85
2023-11-10T06:49:17.803Z,8.40
2023-11-10T06:51:47.909Z,10.50
2023-11-10T06:54:16.511Z,14.27
2023-11-10T06:56:44.835Z,8.50
2023-11-10T06:59:14.572Z,10.05
2023-11-10T07:01:43.340Z,8.95
2023-11-10T07:04:12.251Z,7.10
2023-11-10T07:06:41.602Z,5.82
2023-11-10T07:12:58.048Z,7.07
2023-11-10T07:15:27.996Z,6.65
2023-11-10T07:17:56.317Z,6.70
2023-11-10T07:20:26.017Z,12.38
2023-11-10T07:22:54.952Z,8.20
2023-11-10T07:25:25.666Z,7.28
2023-11-10T07:27:54.120Z,12.45
2023-11-10T07:30:23.081Z,7.35
2023-11-10T07:32:54.054Z,7.80
2023-11-10T07:35:22.366Z,9.85
2023-11-10T07:37:51.313Z,7.28
2023-11-10T07:40:19.974Z,9.40
2023-11-10T07:42:49.283Z,7.60
2023-11-10T07:45:18.705Z,7.07
2023-11-10T07:47:48.040Z,5.00
2023-11-10T07:50:19.659Z,10.85
2023-11-10T07:52:49.153Z,9.55
2023-11-10T07:55:18.106Z,10.10
2023-11-10T07:57:49.188Z,9.15
2023-11-10T08:00:20.457Z,6.78
2023-11-10T08:02:53.765Z,9.70
2023-11-10T08:05:25.260Z,6.70
2023-11-10T08:07:54.077Z,9.80
2023-11-10T08:10:24.168Z,7.18
2023-11-10T08:12:54.547Z,6.10
2023-11-10T08:15:23.332Z,6.10
2023-11-10T08:17:52.395Z,4.63
2023-11-10T08:20:20.720Z,6.90
2023-11-10T08:22:50.428Z,5.45
2023-11-10T08:25:18.910Z,9.10
2023-11-10T08:27:47.317Z,5.47
2023-11-10T08:30:17.346Z,3.33
2023-11-10T08:32:45.825Z,3.35
2023-11-10T08:35:16.214Z,9.02
2023-11-10T08:37:44.727Z,6.50
2023-11-10T08:40:14.947Z,10.25
2023-11-10T08:42:43.803Z,11.50
2023-11-10T08:45:16.219Z,5.93
2023-11-10T08:47:44.989Z,7.10
2023-11-10T08:50:13.963Z,5.75
2023-11-10T08:52:43.551Z,6.53
2023-11-10T08:55:14.845Z,5.68
2023-11-10T08:57:43.545Z,6.60
2023-11-10T09:00:17.216Z,7.28
2023-11-10T09:02:45.751Z,4.15
2023-11-10T09:05:15.581Z,6.25
2023-11-10T09:07:44.125Z,7.45
2023-11-10T09:10:13.978Z,4.50
2023-11-10T09:12:43.677Z,3.15
2023-11-10T09:15:15.881Z,5.03
2023-11-10T09:17:44.902Z,7.00
2023-11-10T09:20:16.775Z,5.15
2023-11-10T09:22:45.299Z,5.15
2023-11-10T09:25:18.012Z,4.80
2023-11-10T09:27:47.009Z,8.13
2023-11-10T09:30:16.294Z,7.72
2023-11-10T09:32:44.732Z,3.13
2023-11-10T09:35:18.050Z,4.43
2023-11-10T09:37:47.785Z,4.85
2023-11-10T09:40:20.938Z,4.50
2023-11-10T09:42:53.539Z,4.00
2023-11-10T09:45:23.703Z,4.03
2023-11-10T09:47:54.686Z,2.55
2023-11-10T09:50:27.221Z,3.13
2023-11-10T09:52:57.888Z,2.65
2023-11-10T09:55:28.209Z,3.78
2023-11-10T09:57:57.214Z,3.03
2023-11-10T10:00:25.690Z,2.75
2023-11-10T10:02:54.259Z,3.28
2023-11-10T10:05:22.738Z,5.95
2023-11-10T10:07:51.043Z,2.33
2023-11-10T10:10:21.065Z,3.35
2023-11-10T10:12:52.357Z,2.88
2023-11-10T10:15:29.745Z,4.05
2023-11-10T10:18:05.779Z,4.90
2023-11-10T10:20:37.186Z,5.47
2023-11-10T10:23:08.585Z,4.95
2023-11-10T10:25:36.907Z,3.25
2023-11-10T10:28:08.583Z,2.10
2023-11-10T10:30:38.139Z,5.47
2023-11-10T10:33:08.331Z,4.30
2023-11-10T10:35:36.774Z,3.75
2023-11-10T10:38:07.667Z,2.87
2023-11-10T10:40:37.858Z,47.72
2023-11-10T10:43:09.403Z,20.33
2023-11-10T10:45:39.170Z,18.83
2023-11-10T10:48:08.076Z,10.13
2023-11-10T10:50:38.607Z,3.25
2023-11-10T10:53:09.471Z,3.42
2023-11-10T10:55:40.025Z,2.58
2023-11-10T10:58:10.960Z,7.15
2023-11-10T11:00:39.533Z,4.90
2023-11-10T11:03:24.986Z,3.15
2023-11-10T11:06:14.111Z,4.15
2023-11-10T11:08:58.335Z,2.10
2023-11-10T11:11:53.898Z,2.40
2023-11-10T11:14:39.886Z,1.98
2023-11-10T11:17:30.722Z,4.65
2023-11-10T11:20:00.093Z,6.93
2023-11-10T11:22:29.155Z,4.00
2023-11-10T11:25:07.388Z,3.42
2023-11-10T11:27:36.425Z,6.43
2023-11-10T11:30:12.164Z,8.40
2023-11-10T11:32:42.527Z,3.35
2023-11-10T11:35:16.241Z,5.35
2023-11-10T11:37:45.691Z,4.38
2023-11-10T11:40:15.594Z,4.90
2023-11-10T11:42:44.257Z,2.10
2023-11-10T11:45:14.995Z,4.30
2023-11-10T11:47:44.208Z,5.03
2023-11-10T11:50:13.457Z,2.80
2023-11-10T11:52:42.280Z,4.60
2023-11-10T11:55:11.395Z,2.40
2023-11-10T12:01:43.840Z,3.88
2023-11-10T12:08:13.284Z,4.97
2023-11-10T12:10:41.992Z,3.25
2023-11-10T12:13:10.303Z,2.45
2023-11-10T12:15:38.856Z,3.83
2023-11-10T12:18:09.065Z,3.38
2023-11-10T12:20:37.819Z,1.85
2023-11-10T12:27:01.976Z,6.20
2023-11-10T12:33:20.225Z,9.40
2023-11-10T12:35:48.585Z,10.38
2023-11-10T12:38:16.832Z,49.95
2023-11-10T12:40:45.417Z,5.97
2023-11-10T12:43:14.147Z,4.20
2023-11-10T12:45:46.156Z,9.77
2023-11-10T12:48:15.684Z,3.78
2023-11-10T12:50:48.774Z,6.40
2023-11-10T12:53:20.440Z,9.35
2023-11-10T12:55:48.872Z,6.32
2023-11-10T12:58:17.938Z,15.23
2023-11-10T13:00:46.448Z,6.97
2023-11-10T13:03:15.011Z,5.47
2023-11-10T13:05:43.497Z,7.07
2023-11-10T13:08:13.198Z,9.85
2023-11-10T13:10:41.704Z,12.85
2023-11-10T13:13:10.387Z,19.25
2023-11-10T13:15:38.850Z,15.93
2023-11-10T13:18:08.494Z,14.77
2023-11-10T13:20:38.375Z,6.50
2023-11-10T13:23:08.005Z,4.78
2023-11-10T13:25:37.791Z,5.50
2023-11-10T13:28:08.392Z,6.00
2023-11-10T13:30:37.015Z,3.80
2023-11-10T13:33:05.887Z,4.78
2023-11-10T13:35:34.625Z,3.38
2023-11-10T13:38:02.979Z,7.05
2023-11-10T13:40:31.346Z,5.82
2023-11-10T13:43:03.050Z,5.38
2023-11-10T13:45:33.750Z,10.10
2023-11-10T13:48:02.272Z,4.35
2023-11-10T13:50:30.599Z,5.85
2023-11-10T13:52:58.914Z,6.40
2023-11-10T13:55:27.294Z,9.27
2023-11-10T13:57:55.610Z,6.55
2023-11-10T14:00:25.334Z,7.03
2023-11-10T14:02:53.777Z,5.93
2023-11-10T14:05:23.414Z,4.80
2023-11-10T14:07:51.649Z,5.95
2023-11-10T14:10:21.486Z,6.47
2023-11-10T14:12:50.189Z,8.40
2023-11-10T14:15:19.285Z,5.25
2023-11-10T14:17:49.656Z,8.05
2023-11-10T14:20:18.740Z,4.32
2023-11-10T14:22:46.996Z,4.63
2023-11-10T14:25:15.333Z,3.20
2023-11-10T14:27:44.818Z,2.38
2023-11-10T14:30:16.726Z,2.78
2023-11-10T14:32:45.669Z,3.25
2023-11-10T14:35:17.339Z,3.97
2023-11-10T14:37:46.892Z,6.10
2023-11-10T14:40:19.401Z,7.32
2023-11-10T14:42:50.877Z,6.55
2023-11-10T14:45:23.250Z,4.15
2023-11-10T14:47:52.983Z,3.42
2023-11-10T14:50:36.074Z,9.02
2023-11-10T14:53:07.812Z,4.18
2023-11-10T14:55:36.316Z,3.45
2023-11-10T14:58:05.106Z,5.05
2023-11-10T15:00:34.597Z,2.80
2023-11-10T15:03:05.627Z,4.55
2023-11-10T15:05:35.983Z,2.65
2023-11-10T15:08:05.512Z,4.57
2023-11-10T15:10:38.948Z,9.45
2023-11-10T15:13:10.519Z,14.05
2023-11-10T15:15:40.091Z,9.05
2023-11-10T15:18:11.189Z,12.95
2023-11-10T15:20:41.488Z,15.18
2023-11-10T15:23:12.562Z,23.27
2023-11-10T15:25:41.328Z,27.77
2023-11-10T15:28:09.648Z,30.30
2023-11-10T15:30:39.460Z,22.00
2023-11-10T15:33:09.561Z,10.45
2023-11-10T15:35:41.216Z,9.65
2023-11-10T15:38:14.422Z,11.30
2023-11-10T15:40:44.942Z,16.83
2023-11-10T15:43:13.281Z,26.83
2023-11-10T15:45:44.447Z,23.20
2023-11-10T15:48:12.810Z,20.30
2023-11-10T15:50:41.191Z,21.73
2023-11-10T15:53:09.487Z,12.85
2023-11-10T15:55:39.908Z,16.40
2023-11-10T15:58:08.277Z,12.85
2023-11-10T16:00:36.614Z,9.50
2023-11-10T16:03:05.244Z,24.15
2023-11-10T16:05:33.845Z,10.02
2023-11-10T16:08:02.501Z,10.50
2023-11-10T16:10:33.584Z,6.88
2023-11-10T16:13:03.434Z,13.30
2023-11-10T16:15:31.802Z,11.05
2023-11-10T16:18:00.116Z,7.05
2023-11-10T16:20:29.844Z,9.18
2023-11-10T16:22:58.167Z,8.30
2023-11-10T16:25:26.515Z,8.65
2023-11-10T16:27:56.573Z,5.55
2023-11-10T16:30:26.972Z,4.50
2023-11-10T16:32:59.217Z,23.67
2023-11-10T16:35:28.732Z,11.45
2023-11-10T16:37:57.227Z,15.45
2023-11-10T16:40:25.601Z,18.15
2023-11-10T16:42:53.999Z,18.13
2023-11-10T16:45:22.351Z,40.10
2023-11-10T16:47:55.495Z,38.03
2023-11-10T16:50:24.367Z,30.15
2023-11-10T16:52:53.969Z,28.30
2023-11-10T16:55:24.391Z,35.50
2023-11-10T16:57:52.848Z,28.60
2023-11-10T17:00:27.024Z,36.65
2023-11-10T17:03:04.641Z,42.90
2023-11-10T17:05:33.113Z,34.15
2023-11-10T17:08:01.734Z,19.70
2023-11-10T17:10:33.853Z,15.95
2023-11-10T17:13:02.500Z,16.23
2023-11-10T17:15:31.034Z,24.15
2023-11-10T17:17:59.317Z,20.00
2023-11-10T17:20:31.413Z,30.70
2023-11-10T17:22:59.766Z,32.25
2023-11-10T17:25:28.431Z,31.55
2023-11-10T17:27:56.718Z,26.27
2023-11-10T17:30:25.053Z,27.23
2023-11-10T17:32:53.297Z,22.55
2023-11-10T17:35:21.956Z,18.15
2023-11-10T17:37:52.039Z,17.25
2023-11-10T17:40:20.448Z,24.25
2023-11-10T17:42:48.964Z,21.13
2023-11-10T17:45:18.600Z,22.80
2023-11-10T17:47:48.816Z,26.17
2023-11-10T17:50:19.140Z,33.63
2023-11-10T17:52:47.413Z,27.90
2023-11-10T17:55:17.568Z,36.22
2023-11-10T17:57:46.951Z,33.00
2023-11-10T18:00:15.814Z,34.55
2023-11-10T18:02:44.145Z,29.30
2023-11-10T18:05:13.796Z,19.65
2023-11-10T18:07:42.130Z,19.45
2023-11-10T18:10:10.999Z,22.80
2023-11-10T18:12:43.511Z,19.35
2023-11-10T18:15:12.772Z,18.15
2023-11-10T18:17:41.319Z,20.55
2023-11-10T18:20:11.011Z,22.42
2023-11-10T18:22:39.235Z,25.35
2023-11-10T18:25:08.234Z,29.65
2023-11-10T18:27:36.529Z,27.58
2023-11-10T18:30:13.153Z,22.90
2023-11-10T18:32:41.764Z,25.58
2023-11-10T18:35:12.396Z,25.55
2023-11-10T18:37:40.682Z,32.25
2023-11-10T18:40:11.543Z,30.00
2023-11-10T18:42:42.329Z,30.20
2023-11-10T18:45:12.850Z,31.20
2023-11-10T18:47:41.168Z,24.38
2023-11-10T18:50:10.626Z,30.35
2023-11-10T18:52:39.109Z,25.52
2023-11-10T18:55:07.998Z,27.85
2023-11-10T18:57:36.388Z,26.02
2023-11-10T19:00:06.399Z,25.77
2023-11-10T19:02:36.265Z,38.53
2023-11-10T19:05:04.820Z,36.45
2023-11-10T19:07:34.200Z,46.47
2023-11-10T19:10:03.807Z,33.45
2023-11-10T19:12:32.200Z,21.52
2023-11-10T19:15:00.523Z,19.55
2023-11-10T19:17:28.869Z,19.73
2023-11-10T19:19:58.992Z,21.30
2023-11-10T19:22:27.845Z,23.33
2023-11-10T19:24:59.198Z,18.00
2023-11-10T19:27:30.106Z,23.05
2023-11-10T19:29:58.476Z,24.52
2023-11-10T19:32:27.757Z,28.13
2023-11-10T19:34:56.035Z,25.15
2023-11-10T19:37:26.306Z,23.90
2023-11-10T19:39:54.718Z,20.27
2023-11-10T19:42:22.990Z,21.35
2023-11-10T19:44:53.548Z,23.17
2023-11-10T19:47:22.016Z,17.15
2023-11-10T19:49:54.410Z,24.90
2023-11-10T19:52:25.424Z,18.80
2023-11-10T19:54:59.805Z,15.25
2023-11-10T19:57:28.725Z,15.65
2023-11-10T20:02:28.545Z,12.73
2023-11-10T20:04:56.919Z,39.78
2023-11-10T20:07:26.640Z,29.10
2023-11-10T20:09:55.029Z,32.35
2023-11-10T20:12:23.448Z,33.13
2023-11-10T20:14:51.733Z,30.05
2023-11-10T20:17:19.988Z,26.27
2023-11-10T20:19:48.428Z,32.70
2023-11-10T20:22:17.130Z,44.70
2023-11-10T20:24:46.968Z,33.22
2023-11-10T20:27:15.363Z,31.65
2023-11-10T20:29:48.791Z,36.58
2023-11-10T20:32:18.589Z,38.28
2023-11-10T20:34:46.870Z,32.83
2023-11-10T20:37:15.980Z,26.20
2023-11-10T20:39:44.284Z,27.02
2023-11-10T20:42:14.394Z,27.77
2023-11-10T20:44:42.679Z,29.00
2023-11-10T20:47:10.927Z,22.50
2023-11-10T20:49:39.786Z,25.95
2023-11-10T20:52:08.691Z,22.92
2023-11-10T20:54:36.979Z,23.35
2023-11-10T20:57:06.290Z,23.45
2023-11-10T20:59:36.253Z,22.50
2023-11-10T21:02:04.759Z,24.65
2023-11-10T21:04:33.399Z,17.73
2023-11-10T21:07:02.002Z,24.27
2023-11-10T21:09:33.378Z,19.08
2023-11-10T21:12:02.039Z,18.30
2023-11-10T21:14:30.506Z,17.50
2023-11-10T21:17:00.411Z,20.75
2023-11-10T21:19:28.943Z,17.17
2023-11-10T21:21:57.337Z,14.02
2023-11-10T21:24:25.783Z,15.13
2023-11-10T21:26:54.113Z,15.80
2023-11-10T21:29:22.745Z,10.73
2023-11-10T21:31:52.235Z,10.10
2023-11-10T21:34:22.363Z,13.10
2023-11-10T21:36:50.686Z,11.60
2023-11-10T21:39:22.636Z,12.95
2023-11-10T21:41:56.281Z,11.80
2023-11-10T21:44:24.711Z,12.23
2023-11-10T21:46:53.065Z,12.10
2023-11-10T21:49:25.650Z,10.13
2023-11-10T21:51:54.275Z,14.93
2023-11-10T21:54:22.975Z,9.05
2023-11-10T21:56:51.793Z,9.48
2023-11-10T21:59:20.157Z,12.48
2023-11-10T22:01:52.224Z,11.15
2023-11-10T22:04:22.382Z,13.20
2023-11-10T22:06:50.898Z,14.30
2023-11-10T22:09:19.669Z,14.68
2023-11-10T22:11:48.129Z,21.95
2023-11-10T22:14:19.089Z,21.63
2023-11-10T22:16:47.875Z,17.38
2023-11-10T22:19:16.219Z,21.98
2023-11-10T22:21:49.838Z,22.63
2023-11-10T22:24:18.961Z,18.98
2023-11-10T22:26:47.532Z,19.13
2023-11-10T22:29:18.587Z,19.88
2023-11-10T22:31:46.906Z,20.77
2023-11-10T22:34:15.296Z,22.70
2023-11-10T22:36:43.631Z,15.07
2023-11-10T22:39:13.679Z,14.38
2023-11-10T22:41:44.477Z,24.23
2023-11-10T22:44:23.684Z,16.23
2023-11-10T22:46:53.077Z,15.35
2023-11-10T22:49:21.791Z,15.27
2023-11-10T22:51:50.399Z,13.57
2023-11-10T22:54:20.178Z,15.77
2023-11-10T22:56:48.768Z,17.75
2023-11-10T22:59:20.941Z,18.20
2023-11-10T23:01:50.866Z,14.90
2023-11-10T23:04:19.383Z,17.52
2023-11-10T23:06:47.908Z,15.43
2023-11-10T23:09:16.720Z,19.48
2023-11-10T23:11:46.549Z,24.23
2023-11-10T23:14:16.030Z,16.25
2023-11-10T23:16:56.220Z,17.35
2023-11-10T23:19:24.855Z,18.40
2023-11-10T23:21:53.880Z,17.40
2023-11-10T23:24:22.455Z,16.80
2023-11-10T23:26:52.609Z,15.98
2023-11-10T23:29:21.240Z,19.10
2023-11-10T23:31:49.531Z,17.15
2023-11-10T23:34:45.748Z,14.82
2023-11-10T23:37:29.883Z,13.52
2023-11-10T23:39:59.232Z,11.13
2023-11-10T23:42:40.765Z,20.63
2023-11-10T23:45:10.386Z,20.42
2023-11-10T23:47:38.972Z,13.88
2023-11-10T23:50:09.414Z,20.98
2023-11-10T23:52:41.365Z,17.35
2023-11-10T23:55:12.758Z,15.52
2023-11-10T23:57:51.970Z,13.60
